Time;durP1;ratioP1;P1;durP2;ratioP2;P2;SDS_P1;SDS_P2;PMS_P1;PMS_P2;Temp;Humidity;BMP_temperature;BMP_pressure;BME280_temperature;BME280_humidity;BME280_pressure;Samples;Min_cycle;Max_cycle;Signal;HPM_P1;HPM_P2
2022/12/19 00:01:17;;;;;;;12.55;4.72;;;;;;;-4.45;58.08;102739.75;1706429;83;21081;-64
2022/12/19 00:03:54;;;;;;;8.03;2.92;;;;;;;-4.46;58.14;102736.32;1706632;82;21318;-64
2022/12/19 00:06:21;;;;;;;10.72;3.35;;;;;;;-4.47;58.18;102751.31;1725142;81;21430;-63
2022/12/19 00:08:49;;;;;;;9.33;3.35;;;;;;;-4.50;58.26;102757.67;1704025;83;21074;-64
2022/12/19 00:11:18;;;;;;;8.20;3.05;;;;;;;-4.51;58.33;102759.78;1725459;81;21113;-64
2022/12/19 00:13:45;;;;;;;7.65;2.15;;;;;;;-4.51;58.38;102762.34;1713260;81;21059;-64
2022/12/19 00:16:19;;;;;;;9.68;3.98;;;;;;;-4.50;58.40;102758.53;1697647;83;21675;-65
2022/12/19 00:18:46;;;;;;;7.78;3.58;;;;;;;-4.53;58.52;102753.75;1691736;82;22225;-64
2022/12/19 00:21:18;;;;;;;7.42;2.62;;;;;;;-4.51;58.71;102755.49;1700137;82;21077;-64
2022/12/19 00:23:45;;;;;;;7.58;3.42;;;;;;;-4.50;58.76;102750.81;1705280;82;21067;-64
2022/12/19 00:26:19;;;;;;;9.80;3.52;;;;;;;-4.53;58.76;102746.04;1694426;82;21169;-64
2022/12/19 00:28:48;;;;;;;7.65;3.25;;;;;;;-4.53;59.09;102748.61;1738359;81;21886;-64
2022/12/19 00:31:15;;;;;;;9.50;4.47;;;;;;;-4.54;59.25;102748.14;1712198;82;22262;-64
2022/12/19 00:33:42;;;;;;;6.22;3.17;;;;;;;-4.53;59.46;102754.60;1704225;82;21078;-64
2022/12/19 00:36:15;;;;;;;8.75;3.85;;;;;;;-4.59;59.70;102758.75;1707221;82;21057;-64
2022/12/19 00:38:45;;;;;;;8.20;3.50;;;;;;;-4.55;59.79;102763.13;1710905;82;21545;-64
2022/12/19 00:41:18;;;;;;;8.40;3.47;;;;;;;-4.58;60.37;102757.50;1704269;81;21092;-64
2022/12/19 00:45:00;;;;;;;5.45;2.12;;;;;;;-4.74;61.26;102758.00;1791620;78;22641;-55
2022/12/19 00:47:28;;;;;;;8.10;3.80;;;;;;;-4.53;60.73;102774.30;1771714;80;21074;-55
2022/12/19 00:49:54;;;;;;;8.95;3.33;;;;;;;-4.51;60.80;102763.62;1769065;79;21210;-54
2022/12/19 00:52:21;;;;;;;8.05;3.50;;;;;;;-4.48;60.97;102765.84;1767835;79;21062;-54
2022/12/19 00:54:49;;;;;;;6.45;3.47;;;;;;;-4.56;61.49;102768.67;1770563;80;21105;-56
2022/12/19 00:57:17;;;;;;;6.65;2.87;;;;;;;-4.56;61.81;102785.37;1768007;79;21022;-54
2022/12/19 00:59:43;;;;;;;6.80;2.77;;;;;;;-4.51;61.73;102782.91;1772691;79;21057;-55
2022/12/19 01:02:10;;;;;;;7.45;2.98;;;;;;;-4.50;61.76;102786.80;1770577;79;21254;-54
2022/12/19 01:04:37;;;;;;;7.35;3.05;;;;;;;-4.43;61.66;102791.64;1772427;79;21073;-54
2022/12/19 01:07:06;;;;;;;5.50;2.47;;;;;;;-4.51;61.92;102783.77;1768432;79;21102;-55
2022/12/19 01:09:33;;;;;;;8.03;3.87;;;;;;;-4.45;61.63;102783.05;1771100;79;21375;-55
2022/12/19 01:14:45;;;;;;;6.22;2.67;;;;;;;-4.38;61.77;102786.18;1772542;79;21137;-55
2022/12/19 01:17:11;;;;;;;10.25;2.70;;;;;;;-4.32;61.82;102790.17;1763626;79;21082;-55
2022/12/19 01:19:38;;;;;;;5.35;1.90;;;;;;;-4.32;61.97;102791.45;1766616;79;21094;-56
2022/12/19 01:22:04;;;;;;;8.10;2.77;;;;;;;-4.34;62.05;102788.39;1765141;79;21046;-55
2022/12/19 01:24:31;;;;;;;6.37;2.42;;;;;;;-4.22;62.00;102800.63;1766169;79;21066;-54
2022/12/19 01:26:57;;;;;;;5.90;2.10;;;;;;;-4.20;62.13;102801.12;1763191;79;21185;-55
2022/12/19 01:29:25;;;;;;;5.95;2.08;;;;;;;-4.14;62.07;102807.65;1769130;79;21077;-54
2022/12/19 01:31:51;;;;;;;5.97;1.70;;;;;;;-4.13;62.07;102800.40;1767417;79;21078;-55
2022/12/19 01:34:17;;;;;;;6.25;2.35;;;;;;;-4.07;62.16;102803.92;1769550;79;21117;-57
2022/12/19 01:36:44;;;;;;;5.12;1.72;;;;;;;-4.09;62.20;102802.60;1764930;79;21081;-56
2022/12/19 01:39:10;;;;;;;6.42;2.30;;;;;;;-4.01;62.11;102822.91;1766472;80;21247;-55
2022/12/19 01:41:37;;;;;;;6.70;2.65;;;;;;;-4.06;62.42;102825.81;1767505;80;21098;-56
2022/12/19 01:44:06;;;;;;;5.40;1.80;;;;;;;-3.97;62.32;102823.44;1764057;79;21458;-56
2022/12/19 01:46:44;;;;;;;4.95;2.05;;;;;;;-3.90;62.37;102829.97;1757658;80;21125;-55
2022/12/19 01:49:34;;;;;;;6.33;1.85;;;;;;;-3.89;62.33;102829.14;1760816;80;21118;-55
2022/12/19 01:56:49;;;;;;;5.05;1.72;;;;;;;-3.90;62.35;102837.69;1758762;80;21090;-56
2022/12/19 01:59:28;;;;;;;4.08;1.50;;;;;;;-3.94;62.11;102834.19;1755869;80;21090;-55
2022/12/19 02:02:00;;;;;;;4.15;1.72;;;;;;;-3.91;62.03;102827.83;1757315;79;21154;-56
2022/12/19 02:04:27;;;;;;;7.08;1.65;;;;;;;-3.91;61.81;102834.25;1758966;79;21067;-55
2022/12/19 02:06:57;;;;;;;5.45;1.52;;;;;;;-3.87;62.01;102830.89;1755283;80;21955;-56
2022/12/19 02:09:24;;;;;;;4.03;1.47;;;;;;;-3.84;61.89;102837.81;1758657;80;21066;-55
2022/12/19 02:11:51;;;;;;;4.78;1.20;;;;;;;-3.91;61.61;102830.39;1725545;80;21058;-56
2022/12/19 02:14:18;;;;;;;4.50;1.32;;;;;;;-3.85;61.40;102838.24;1756717;80;21113;-55
2022/12/19 02:17:05;;;;;;;6.17;2.25;;;;;;;-3.74;61.46;102836.72;1759814;80;21140;-55
2022/12/19 02:19:52;;;;;;;4.22;1.77;;;;;;;-3.73;61.28;102836.32;1758077;79;21275;-55
2022/12/19 02:22:42;;;;;;;6.45;1.72;;;;;;;-3.70;61.41;102845.36;1756931;80;21106;-54
2022/12/19 02:25:32;;;;;;;6.25;2.02;;;;;;;-3.66;61.24;102843.31;1758679;80;21053;-54
2022/12/19 02:28:20;;;;;;;6.40;2.05;;;;;;;-3.64;61.45;102844.63;1753959;80;21047;-54
2022/12/19 02:31:04;;;;;;;4.47;1.57;;;;;;;-3.57;61.61;102848.61;1753490;80;22491;-54
2022/12/19 02:33:42;;;;;;;;;;;;;;;-3.47;61.04;102852.65;1731928;80;21072;-56
2022/12/19 05:07:50;;;;;;;7.00;1.98;;;;;;;-1.96;59.98;102956.81;1749681;80;21109;-54
2022/12/19 05:10:17;;;;;;;7.05;2.10;;;;;;;-2.03;59.81;102962.72;1744111;80;21082;-54
2022/12/19 05:12:44;;;;;;;5.42;1.80;;;;;;;-2.03;59.84;102971.75;1753481;80;21651;-55
2022/12/19 05:15:10;;;;;;;12.35;4.10;;;;;;;-2.07;59.80;102977.29;1751725;80;21561;-55
2022/12/19 05:17:37;;;;;;;6.15;2.15;;;;;;;-2.13;59.65;102978.08;1752705;80;21169;-55
2022/12/19 05:20:06;;;;;;;10.18;2.47;;;;;;;-2.18;59.90;102981.02;1753535;80;21051;-55
2022/12/19 05:22:33;;;;;;;7.33;3.17;;;;;;;-2.18;59.90;102981.02;1752422;80;21476;-55
2022/12/19 05:25:00;;;;;;;4.55;1.60;;;;;;;-2.17;59.84;102971.16;1748507;80;22206;-55
2022/12/19 05:27:26;;;;;;;10.55;2.42;;;;;;;-2.17;60.05;102977.61;1752013;80;21487;-55
2022/12/19 05:29:52;;;;;;;7.10;2.77;;;;;;;-2.14;60.07;102981.92;1750246;80;21553;-56
2022/12/19 05:32:19;;;;;;;6.08;2.10;;;;;;;-2.14;60.00;102984.51;1752281;80;21640;-55
2022/12/19 05:34:46;;;;;;;9.58;2.95;;;;;;;-2.14;60.07;102988.38;1750927;80;21118;-54
2022/12/19 05:37:12;;;;;;;6.65;2.90;;;;;;;-2.12;60.12;102997.00;1752078;80;21036;-55
2022/12/19 05:39:39;;;;;;;6.58;2.27;;;;;;;-2.09;60.17;103003.06;1755849;80;21593;-55
2022/12/19 05:42:05;;;;;;;9.38;3.08;;;;;;;-2.09;60.17;103003.06;1752455;80;23198;-55
2022/12/19 05:44:32;;;;;;;8.08;3.55;;;;;;;-2.07;60.00;103006.96;1748078;79;21066;-54
2022/12/19 05:46:58;;;;;;;9.58;3.60;;;;;;;-2.06;59.95;103008.70;1752679;80;21059;-55
2022/12/19 05:49:25;;;;;;;7.95;3.60;;;;;;;-2.08;59.88;103013.84;1749466;80;21728;-55
2022/12/19 05:51:52;;;;;;;7.53;3.25;;;;;;;-2.11;60.04;103012.94;1753111;80;21063;-54
2022/12/19 05:54:18;;;;;;;8.20;3.58;;;;;;;-2.15;59.78;103002.11;1749826;80;22345;-55
2022/12/19 05:56:46;;;;;;;8.93;3.52;;;;;;;-2.20;60.05;103007.22;1749396;80;20979;-55
2022/12/19 05:59:12;;;;;;;10.50;4.08;;;;;;;-2.22;60.12;103007.59;1750872;80;21121;-55
2022/12/19 06:01:39;;;;;;;12.28;3.90;;;;;;;-2.21;60.23;103008.05;1751535;80;21574;-55
2022/12/19 06:04:06;;;;;;;10.65;4.37;;;;;;;-2.21;60.27;103014.50;1747940;80;22203;-54
2022/12/19 06:06:33;;;;;;;13.98;4.53;;;;;;;-2.20;60.23;103007.22;1751314;80;21228;-55
2022/12/19 06:09:01;;;;;;;9.15;3.60;;;;;;;-2.20;60.23;103007.22;1753264;80;21070;-55
2022/12/19 06:11:28;;;;;;;11.30;3.87;;;;;;;-2.22;60.18;103006.30;1746858;80;21107;-55
2022/12/19 06:13:54;;;;;;;13.32;4.92;;;;;;;-2.19;60.10;103019.25;1753044;80;21478;-55
2022/12/19 06:16:22;;;;;;;9.90;3.92;;;;;;;-2.21;60.15;103018.38;1742630;80;21121;-55
2022/12/19 06:18:48;;;;;;;10.50;4.78;;;;;;;-2.21;59.77;103027.40;1747856;80;21318;-58
2022/12/19 06:21:19;;;;;;;12.28;4.87;;;;;;;-2.21;59.77;103027.40;1754864;80;21054;-54
2022/12/19 06:23:46;;;;;;;11.63;5.65;;;;;;;-2.26;59.96;103022.16;1751035;80;21051;-55
2022/12/19 06:26:15;;;;;;;15.95;6.60;;;;;;;-2.26;59.96;103021.30;1748823;80;21118;-55
2022/12/19 06:28:42;;;;;;;14.68;6.28;;;;;;;-2.28;59.95;103017.41;1751914;80;21652;-55
2022/12/19 06:31:10;;;;;;;10.80;5.87;;;;;;;-2.28;60.05;103025.58;1751446;80;21555;-56
2022/12/19 06:33:36;;;;;;;19.55;8.03;;;;;;;-2.29;59.89;103021.25;1730273;80;21095;-56
2022/12/19 06:36:05;;;;;;;12.33;4.60;;;;;;;-2.29;60.10;103035.44;1739011;80;21083;-55
2022/12/19 06:38:33;;;;;;;13.13;5.47;;;;;;;-2.25;60.03;103033.37;1750885;79;21028;-54
2022/12/19 06:43:44;;;;;;;13.88;4.50;;;;;;;-2.25;59.70;103042.39;1750530;79;21845;-54
2022/12/19 06:46:11;;;;;;;13.03;5.42;;;;;;;-2.28;59.79;103038.47;1753363;80;21072;-54
2022/12/19 06:48:41;;;;;;;15.30;5.92;;;;;;;-2.26;59.90;103040.64;1753563;80;21024;-54
2022/12/19 06:51:08;;;;;;;9.30;4.17;;;;;;;-2.19;60.08;103044.19;1752395;80;21059;-55
2022/12/19 06:53:34;;;;;;;11.65;5.45;;;;;;;-2.12;59.86;103036.98;1750170;80;21407;-57
2022/12/19 06:56:01;;;;;;;10.23;4.72;;;;;;;-2.07;59.70;103045.66;1755240;80;21195;-55
2022/12/19 06:58:27;;;;;;;13.62;4.97;;;;;;;-2.07;59.70;103045.66;1749350;79;21087;-56
2022/12/19 07:00:55;;;;;;;14.73;5.85;;;;;;;-2.07;59.36;103048.23;1746599;80;21130;-55
2022/12/19 07:03:24;;;;;;;8.95;4.80;;;;;;;-2.07;59.36;103048.23;1748426;80;21063;-55
2022/12/19 07:05:51;;;;;;;10.70;4.72;;;;;;;-2.18;59.57;103050.67;1748060;80;21090;-56
2022/12/19 08:20:07;;;;;;;11.53;5.62;;;;;;;-1.96;59.60;103100.89;1744552;80;22117;-61
2022/12/19 08:22:33;;;;;;;7.28;3.35;;;;;;;-1.88;59.59;103098.02;1756036;79;21712;-62
2022/12/19 08:25:00;;;;;;;9.70;4.03;;;;;;;-1.81;59.47;103106.72;1746780;80;21237;-61
2022/12/19 08:27:26;;;;;;;9.38;3.90;;;;;;;-1.80;59.33;103114.92;1765041;79;21149;-59
2022/12/19 08:29:53;;;;;;;11.08;4.78;;;;;;;-1.73;59.44;103109.00;1764236;80;21058;-61
2022/12/19 08:32:19;;;;;;;9.55;3.50;;;;;;;-1.66;59.14;103115.52;1756566;79;21125;-59
2022/12/19 08:34:46;;;;;;;9.08;2.85;;;;;;;-1.67;58.90;103109.94;1745445;80;21063;-60
2022/12/19 08:37:12;;;;;;;8.15;3.62;;;;;;;-1.56;58.80;103104.51;1764465;79;21158;-61
2022/12/19 08:39:39;;;;;;;13.72;5.75;;;;;;;-1.56;58.80;103104.51;1755684;79;21154;-62
2022/12/19 08:42:05;;;;;;;11.50;4.42;;;;;;;-1.49;58.91;103112.78;1757036;79;21082;-63
2022/12/19 08:44:33;;;;;;;12.80;4.85;;;;;;;-1.43;58.78;103105.53;1751814;80;21101;-63
2022/12/19 08:46:59;;;;;;;8.15;3.37;;;;;;;-1.37;58.98;103106.48;1754826;79;21125;-64
2022/12/19 08:49:25;;;;;;;8.93;3.50;;;;;;;-1.20;58.79;103107.13;1754779;80;21219;-62
2022/12/19 08:51:52;;;;;;;7.83;4.12;;;;;;;-1.06;58.57;103118.52;1759135;79;21058;-62
2022/12/19 08:54:19;;;;;;;7.97;3.67;;;;;;;-0.95;58.24;103113.03;1757617;80;21118;-60
2022/12/19 08:56:45;;;;;;;7.37;2.95;;;;;;;-0.86;57.98;103109.69;1757592;80;21045;-60
2022/12/19 09:07:33;;;;;;;8.55;4.37;;;;;;;-0.51;57.13;103134.20;1761876;79;21065;-62
2022/12/19 09:10:00;;;;;;;9.93;2.87;;;;;;;-0.60;56.82;103123.34;1762723;80;21145;-61
2022/12/19 09:12:26;;;;;;;7.42;2.72;;;;;;;-0.66;56.70;103112.92;1757025;80;21573;-62
2022/12/19 09:14:53;;;;;;;8.08;3.45;;;;;;;-0.66;56.70;103112.92;1755265;79;21114;-63
2022/12/19 09:17:20;;;;;;;8.33;3.62;;;;;;;-0.71;56.84;103102.95;1758569;79;21795;-62
2022/12/19 09:19:46;;;;;;;7.70;2.90;;;;;;;-0.69;56.83;103097.37;1756523;79;21125;-61
2022/12/19 09:22:13;;;;;;;6.97;2.37;;;;;;;-0.65;56.67;103102.60;1746034;79;21173;-61
2022/12/19 09:24:40;;;;;;;7.20;2.55;;;;;;;-0.71;56.58;103100.38;1745054;81;21110;-61
2022/12/19 09:27:07;;;;;;;9.90;2.98;;;;;;;-0.78;56.83;103099.00;1748000;80;21074;-64
2022/12/19 09:29:34;;;;;;;8.65;2.55;;;;;;;-0.86;56.81;103092.88;1747845;80;21240;-65
2022/12/19 09:32:00;;;;;;;7.62;3.22;;;;;;;-0.85;57.18;103086.02;1747676;80;21063;-62
2022/12/19 09:34:28;;;;;;;6.60;2.17;;;;;;;-0.80;57.14;103081.32;1750317;80;21036;-66
2022/12/19 09:36:55;;;;;;;6.17;2.05;;;;;;;-0.72;57.03;103087.88;1748742;80;21024;-67
2022/12/19 09:39:21;;;;;;;8.88;3.15;;;;;;;-0.63;57.06;103084.08;1751312;80;21102;-65
2022/12/19 09:42:08;;;;;;;7.70;3.17;;;;;;;-0.57;57.11;103078.98;1750415;79;21687;-66
2022/12/19 09:44:56;;;;;;;6.70;2.30;;;;;;;-0.44;56.82;103078.68;1744894;79;21139;-64
2022/12/19 09:47:24;;;;;;;8.15;3.00;;;;;;;-0.35;56.13;103077.89;1749841;80;21110;-64
2022/12/19 09:49:51;;;;;;;10.60;3.85;;;;;;;-0.32;55.93;103088.27;1749617;79;21141;-62
2022/12/19 09:52:26;;;;;;;10.05;3.75;;;;;;;-0.30;56.09;103096.91;1747801;80;21716;-65
2022/12/19 09:55:06;;;;;;;;;;;;;;;-0.22;56.09;103106.02;1751429;79;21095;-63
2022/12/19 09:57:53;;;;;;;9.20;3.65;;;;;;;-0.19;55.73;103104.31;1746730;79;20156;-63
2022/12/19 10:00:21;;;;;;;8.73;4.20;;;;;;;-0.19;55.28;103115.96;1749292;80;21122;-66
2022/12/19 10:02:56;;;;;;;9.15;3.35;;;;;;;-0.19;55.28;103115.96;1747859;79;21071;-62
2022/12/19 10:05:58;;;;;;;10.48;4.83;;;;;;;-0.23;55.32;103114.65;1749170;80;21066;-61
2022/12/19 10:08:31;;;;;;;10.65;3.70;;;;;;;-0.27;55.35;103115.05;1745438;80;21237;-62
2022/12/19 10:11:17;;;;;;;8.20;3.75;;;;;;;-0.26;55.49;103110.30;1748540;80;21066;-61
2022/12/19 10:14:23;;;;;;;10.75;3.40;;;;;;;-0.23;55.37;103102.56;1731438;80;21142;-61
2022/12/19 10:17:23;;;;;;;11.00;4.08;;;;;;;-0.18;55.33;103093.56;1713400;82;21047;-63
2022/12/19 10:33:19;;;;;;;10.38;5.00;;;;;;;0.01;54.96;103085.94;1733104;81;21107;-65
2022/12/19 10:35:48;;;;;;;13.58;5.20;;;;;;;0.02;55.18;103083.36;1750101;80;21051;-64
2022/12/19 10:38:19;;;;;;;12.28;5.03;;;;;;;0.09;54.88;103077.36;1750894;80;21229;-65
2022/12/19 10:41:17;;;;;;;10.82;4.78;;;;;;;0.18;54.88;103074.85;1746318;80;21059;-66
2022/12/19 10:44:05;;;;;;;11.80;5.17;;;;;;;0.28;54.79;103073.59;1751694;80;21037;-64
2022/12/19 10:46:41;;;;;;;10.85;4.75;;;;;;;0.40;53.86;103075.39;1748387;80;21133;-61
2022/12/19 10:49:20;;;;;;;17.23;7.40;;;;;;;0.40;54.08;103068.48;1746382;80;21403;-62
2022/12/19 10:52:02;;;;;;;13.70;5.97;;;;;;;0.44;53.78;103078.02;1749901;80;21095;-65
2022/12/19 10:54:42;;;;;;;13.70;5.67;;;;;;;0.35;53.63;103075.36;1749660;80;21071;-67
2022/12/19 10:57:25;;;;;;;12.70;6.22;;;;;;;0.31;54.06;103068.44;1746117;80;21326;-64
2022/12/19 11:00:04;;;;;;;8.83;5.83;;;;;;;0.40;53.86;103065.89;1745315;80;21074;-68
2022/12/19 11:02:45;;;;;;;15.32;5.62;;;;;;;0.44;53.52;103065.06;1751987;80;21500;-66
2022/12/19 11:05:49;;;;;;;11.28;5.20;;;;;;;0.49;53.61;103063.80;1751180;79;21780;-66
2022/12/19 11:08:21;;;;;;;12.68;7.03;;;;;;;0.51;53.52;103059.05;1755350;79;21031;-67
2022/12/19 11:10:50;;;;;;;14.70;7.42;;;;;;;0.53;53.59;103065.09;1748425;80;21130;-66
2022/12/19 11:13:27;;;;;;;15.65;6.30;;;;;;;0.48;53.27;103062.91;1752639;79;22149;-67
2022/12/19 11:15:58;;;;;;;10.48;5.37;;;;;;;0.42;53.38;103063.31;1748924;80;21662;-66
2022/12/19 11:18:43;;;;;;;13.25;5.80;;;;;;;0.44;53.40;103057.70;1756327;80;21131;-67
2022/12/19 11:21:19;;;;;;;11.28;4.67;;;;;;;0.50;53.36;103053.86;1738169;80;21198;-67
2022/12/19 11:23:53;;;;;;;11.08;5.47;;;;;;;0.50;53.41;103046.08;1749552;80;21043;-68
2022/12/19 11:26:36;;;;;;;11.40;4.70;;;;;;;0.58;53.43;103046.13;1755159;80;21083;-65
2022/12/19 11:29:28;;;;;;;12.28;4.97;;;;;;;0.66;53.05;103044.44;1749935;79;21716;-67
2022/12/19 11:32:00;;;;;;;8.13;3.70;;;;;;;0.64;53.12;103043.14;1745162;80;21183;-67
2022/12/19 11:34:34;;;;;;;9.40;3.98;;;;;;;0.68;53.17;103050.49;1751302;79;21094;-67
2022/12/19 11:37:21;;;;;;;12.68;5.80;;;;;;;0.67;52.72;103052.63;1760441;79;21066;-68
2022/12/19 11:39:57;;;;;;;9.05;3.55;;;;;;;0.61;52.86;103059.11;1756241;79;21487;-66
2022/12/19 11:42:36;;;;;;;9.93;3.20;;;;;;;0.68;52.77;103068.19;1753041;79;21053;-68
2022/12/19 11:45:35;;;;;;;9.95;4.08;;;;;;;0.77;52.46;103074.28;1747574;80;22523;-66
2022/12/19 11:48:20;;;;;;;6.90;3.55;;;;;;;0.75;52.44;103070.37;1728489;81;21094;-67
2022/12/19 11:51:13;;;;;;;9.93;4.30;;;;;;;0.81;52.12;103069.12;1749370;81;22248;-65
2022/12/19 11:53:53;;;;;;;9.93;4.78;;;;;;;0.83;51.98;103063.95;1752955;81;21039;-68
2022/12/19 11:56:22;;;;;;;11.65;5.03;;;;;;;0.85;52.16;103062.22;1748161;80;21141;-68
2022/12/19 11:58:55;;;;;;;10.18;4.35;;;;;;;0.89;51.95;103066.13;1746663;80;21668;-67
2022/12/19 12:01:50;;;;;;;8.08;3.72;;;;;;;0.88;51.86;103064.39;1745998;80;21625;-69
2022/12/19 12:04:50;;;;;;;10.70;4.58;;;;;;;0.88;51.93;103064.39;1749751;81;21546;-66
2022/12/19 12:07:18;;;;;;;11.48;4.47;;;;;;;0.88;51.88;103063.09;1750412;80;21635;-66
2022/12/19 12:10:09;;;;;;;8.55;4.05;;;;;;;0.87;51.95;103069.12;1758125;80;21059;-67
2022/12/19 12:13:05;;;;;;;7.37;3.17;;;;;;;0.92;51.87;103062.66;1748537;80;21193;-67
2022/12/19 12:16:05;;;;;;;8.28;3.62;;;;;;;0.93;51.71;103061.81;1745770;80;21064;-67
2022/12/19 12:19:10;;;;;;;10.80;4.42;;;;;;;0.94;51.79;103059.64;1735257;81;21106;-67
2022/12/19 12:21:52;;;;;;;10.32;3.92;;;;;;;1.03;51.46;103057.09;1623142;85;21112;-69
2022/12/19 12:24:51;;;;;;;9.95;5.28;;;;;;;1.10;51.44;103057.97;1748472;81;21011;-68
2022/12/19 12:28:02;;;;;;;9.68;5.35;;;;;;;1.16;51.58;103064.48;1747567;80;21242;-68
2022/12/19 12:30:34;;;;;;;6.85;3.55;;;;;;;1.21;51.03;103062.77;1751639;80;21082;-68
2022/12/19 16:06:29;;;;;;;9.28;4.72;;;;;;;-1.03;57.05;102999.65;1767806;78;21049;-61
2022/12/19 16:08:57;;;;;;;11.48;6.05;;;;;;;-1.08;57.19;103003.05;1775644;79;21473;-61
2022/12/19 16:11:23;;;;;;;10.98;5.72;;;;;;;-1.08;57.14;102996.16;1779024;79;21052;-60
2022/12/19 16:13:55;;;;;;;11.95;4.95;;;;;;;-1.09;57.21;102998.31;1768897;79;21749;-60
2022/12/19 16:16:22;;;;;;;13.93;6.37;;;;;;;-1.10;57.26;102999.16;1770612;79;21607;-65
2022/12/19 16:18:48;;;;;;;15.58;6.47;;;;;;;-1.11;57.32;102999.99;1775847;79;21080;-63
2022/12/19 16:21:23;;;;;;;13.43;6.17;;;;;;;-1.07;57.35;103004.80;1776290;79;22318;-62
2022/12/19 16:23:51;;;;;;;15.23;6.78;;;;;;;-1.10;57.36;102997.86;1775826;79;21093;-62
2022/12/19 16:26:30;;;;;;;15.28;7.53;;;;;;;-1.12;57.27;103000.42;1773596;79;21698;-62
2022/12/19 16:28:57;;;;;;;18.27;7.05;;;;;;;-1.15;57.18;103008.14;1749043;80;21963;-62
2022/12/19 16:31:25;;;;;;;16.05;6.90;;;;;;;-1.20;57.00;103007.66;1757322;80;21102;-62
2022/12/19 16:33:52;;;;;;;12.75;5.60;;;;;;;-1.26;56.95;103013.63;1764187;78;21087;-62
2022/12/19 16:36:18;;;;;;;18.35;7.80;;;;;;;-1.38;56.92;103004.43;1764952;80;21922;-62
2022/12/19 16:38:45;;;;;;;19.48;8.25;;;;;;;-1.46;57.16;103006.05;1758820;80;21540;-61
2022/12/19 16:41:16;;;;;;;25.27;10.30;;;;;;;-1.52;57.16;103001.69;1758434;80;21094;-61
2022/12/19 16:43:43;;;;;;;18.35;9.25;;;;;;;-1.53;57.39;102997.36;1755417;79;21157;-63
2022/12/19 16:46:22;;;;;;;24.32;11.20;;;;;;;-1.52;57.51;102993.94;1725697;80;21648;-61
2022/12/19 16:48:49;;;;;;;16.10;7.90;;;;;;;-1.51;57.33;103000.42;1755428;79;21116;-60
2022/12/19 16:51:19;;;;;;;21.00;10.25;;;;;;;-1.52;57.32;103005.56;1767822;79;22263;-56
2022/12/19 16:53:46;;;;;;;27.58;12.75;;;;;;;-1.57;57.34;102999.48;1761837;80;21208;-56
2022/12/19 16:56:38;;;;;;;22.05;9.53;;;;;;;-1.61;57.32;102996.42;1761622;79;21152;-56
2022/12/19 16:59:12;;;;;;;18.70;8.25;;;;;;;-1.69;57.48;102997.17;1758998;79;21075;-56
2022/12/19 17:01:42;;;;;;;19.57;8.13;;;;;;;-1.73;57.56;102995.41;1763153;79;21073;-56
2022/12/19 17:04:13;;;;;;;17.50;8.25;;;;;;;-1.75;57.80;102985.50;1748087;80;21091;-56
2022/12/19 17:06:41;;;;;;;17.07;7.22;;;;;;;-1.76;58.06;102984.18;1762233;79;21126;-56
2022/12/19 17:09:10;;;;;;;46.02;18.23;;;;;;;-1.79;58.26;102982.84;1766195;80;21622;-55
2022/12/19 17:11:37;;;;;;;19.15;9.05;;;;;;;-1.79;58.25;102978.54;1760773;80;21109;-56
2022/12/19 17:14:08;;;;;;;16.80;8.58;;;;;;;-1.87;58.14;102964.27;1758860;80;21663;-56
2022/12/19 17:16:35;;;;;;;23.83;11.68;;;;;;;-1.87;58.14;102964.27;1756866;80;21118;-55
2022/12/19 17:19:01;;;;;;;25.70;13.08;;;;;;;-1.89;58.33;102973.67;1712171;81;21558;-55
2022/12/19 17:21:28;;;;;;;34.90;15.32;;;;;;;-1.96;58.34;102965.41;1761276;80;21125;-56
2022/12/19 17:23:55;;;;;;;33.55;18.27;;;;;;;-1.97;58.37;102965.39;1762181;79;21192;-55
2022/12/19 17:26:21;;;;;;;39.45;18.02;;;;;;;-1.97;58.37;102965.39;1757985;80;21130;-56
2022/12/19 17:28:48;;;;;;;36.38;18.77;;;;;;;-1.99;58.31;102955.05;1768208;78;21279;-58
2022/12/19 17:31:22;;;;;;;42.67;20.37;;;;;;;-2.03;58.45;102948.53;1752484;80;21120;-56
2022/12/19 17:33:49;;;;;;;53.63;23.67;;;;;;;-2.02;58.63;102942.53;1752032;80;21077;-58
2022/12/19 17:36:16;;;;;;;44.18;23.60;;;;;;;-2.03;58.64;102941.67;1766996;80;21256;-56
2022/12/19 17:38:43;;;;;;;40.70;22.27;;;;;;;-2.07;58.47;102944.64;1754664;80;21109;-55
2022/12/19 17:41:15;;;;;;;49.05;20.40;;;;;;;-2.13;58.43;102948.84;1757583;80;21164;-55
2022/12/19 17:43:42;;;;;;;53.65;26.70;;;;;;;-2.16;58.62;102943.20;1759704;80;21240;-55
2022/12/19 17:46:17;;;;;;;46.48;22.70;;;;;;;-2.22;58.72;102943.11;1755076;80;21173;-55
2022/12/19 17:48:44;;;;;;;53.85;25.57;;;;;;;-2.27;58.92;102940.89;1759140;80;21257;-54
2022/12/19 17:51:11;;;;;;;50.10;24.20;;;;;;;-2.31;58.92;102930.09;1763427;79;21118;-54
2022/12/19 17:53:38;;;;;;;54.88;28.87;;;;;;;-2.36;59.08;102931.31;1762184;80;21075;-55
2022/12/19 17:56:13;;;;;;;49.48;22.35;;;;;;;-2.31;59.06;102927.52;1771642;80;21134;-55
2022/12/19 17:58:39;;;;;;;44.80;18.23;;;;;;;-2.27;58.75;102926.30;1757965;80;21073;-55
2022/12/19 18:01:18;;;;;;;39.23;19.23;;;;;;;-2.35;58.61;102927.05;1747731;80;21381;-55
2022/12/19 18:03:45;;;;;;;68.20;34.35;;;;;;;-2.37;58.54;102928.31;1748227;80;21084;-58
2022/12/19 18:06:12;;;;;;;56.15;27.05;;;;;;;-2.37;58.76;102930.89;1760617;80;21185;-55
2022/12/19 18:08:39;;;;;;;44.70;20.82;;;;;;;-2.38;58.75;102928.28;1756769;80;22406;-55
2022/12/19 18:11:08;;;;;;;31.55;17.00;;;;;;;-2.40;58.70;102920.92;1756656;80;21140;-55
2022/12/19 18:13:35;;;;;;;24.75;16.32;;;;;;;-2.41;58.68;102920.50;1770802;80;21236;-56
2022/12/19 18:16:03;;;;;;;29.75;14.45;;;;;;;-2.46;58.77;102913.54;1762125;80;21057;-56
2022/12/19 18:18:34;;;;;;;29.05;13.43;;;;;;;-2.50;58.77;102920.80;1750081;80;21046;-56
2022/12/19 18:21:01;;;;;;;25.88;12.28;;;;;;;-2.56;58.83;102927.14;1757077;79;21076;-55
2022/12/19 18:23:29;;;;;;;30.92;15.50;;;;;;;-2.59;58.89;102925.80;1766429;80;21185;-54
2022/12/19 18:25:56;;;;;;;30.27;13.25;;;;;;;-2.63;58.82;102926.61;1761664;80;21073;-54
2022/12/19 18:28:23;;;;;;;24.55;13.32;;;;;;;-2.66;58.92;102929.13;1764833;80;21102;-54
2022/12/19 18:30:49;;;;;;;28.05;15.55;;;;;;;-2.72;58.80;102923.88;1761302;80;21202;-55
2022/12/19 18:33:20;;;;;;;27.67;13.60;;;;;;;-2.78;58.75;102925.94;1762454;80;21283;-55
2022/12/19 18:35:47;;;;;;;24.77;13.00;;;;;;;-2.80;58.71;102929.78;1745309;80;21167;-55
2022/12/19 18:38:19;;;;;;;24.25;11.80;;;;;;;-2.82;58.80;102920.30;1763564;80;21075;-55
2022/12/19 18:40:46;;;;;;;25.62;10.88;;;;;;;-2.84;58.82;102918.09;1771710;80;21089;-56
2022/12/19 18:43:14;;;;;;;25.10;11.85;;;;;;;-2.87;58.76;102915.50;1759968;80;21134;-56
2022/12/19 18:45:47;;;;;;;22.22;11.45;;;;;;;-2.92;58.86;102917.98;1758223;80;21615;-55
2022/12/19 18:48:28;;;;;;;19.62;10.03;;;;;;;-2.95;58.83;102913.21;1740370;80;21669;-55
2022/12/19 18:50:55;;;;;;;19.98;10.32;;;;;;;-2.96;58.91;102916.62;1768359;80;21155;-55
2022/12/19 18:53:28;;;;;;;20.72;10.38;;;;;;;-2.99;58.88;102907.14;1773010;80;21131;-56
2022/12/19 18:55:55;;;;;;;16.20;8.50;;;;;;;-3.02;58.75;102900.64;1757833;80;21413;-55
2022/12/19 18:58:22;;;;;;;18.15;9.43;;;;;;;-3.03;58.73;102901.47;1766585;80;21084;-57
2022/12/19 19:00:49;;;;;;;14.10;8.38;;;;;;;-3.08;58.83;102892.38;1758732;80;21576;-56
2022/12/19 19:03:22;;;;;;;15.05;7.80;;;;;;;-3.10;58.94;102892.77;1759755;80;21129;-56
2022/12/19 19:05:48;;;;;;;16.50;8.05;;;;;;;-3.07;59.22;102888.11;1726828;81;21101;-55
2022/12/19 19:08:21;;;;;;;15.65;8.15;;;;;;;-3.09;59.04;102894.52;1773534;80;21012;-54
2022/12/19 19:10:51;;;;;;;19.62;8.88;;;;;;;-3.08;59.02;102896.67;1760953;80;21152;-54
2022/12/19 19:13:19;;;;;;;18.62;8.80;;;;;;;-3.07;59.01;102890.69;1771208;80;21108;-55
2022/12/19 19:15:56;;;;;;;20.12;8.93;;;;;;;-3.08;59.03;102887.22;1756535;78;21817;-55
2022/12/19 19:18:30;;;;;;;21.52;8.80;;;;;;;-3.10;58.99;102881.19;1761992;80;21149;-54
2022/12/19 19:20:57;;;;;;;19.42;8.38;;;;;;;-3.12;58.95;102885.88;1764404;79;21097;-54
2022/12/19 19:23:26;;;;;;;18.92;8.40;;;;;;;-3.16;59.08;102882.39;1756066;79;22702;-54
2022/12/19 19:25:53;;;;;;;17.98;8.35;;;;;;;-3.19;59.19;102880.61;1744568;80;21771;-55
2022/12/19 19:28:20;;;;;;;22.48;8.93;;;;;;;-3.16;59.21;102879.81;1751862;80;21292;-55
2022/12/19 19:30:46;;;;;;;21.75;8.35;;;;;;;-3.21;59.14;102874.58;1748396;80;21658;-54
2022/12/19 19:33:38;;;;;;;23.00;9.80;;;;;;;-3.21;59.14;102874.58;1773440;80;21233;-55